Time;durP1;ratioP1;P1;durP2;ratioP2;P2;SDS_P1;SDS_P2;PMS_P1;PMS_P2;Temp;Humidity;BMP_temperature;BMP_pressure;BME280_temperature;BME280_humidity;BME280_pressure;Samples;Min_cycle;Max_cycle;Signal;HPM_P1;HPM_P2
2021/05/02 00:01:01;;;;;;;41.78;29.98;;;;;;;-146.18;100.00;67994.34;9987125;29;20422;-69
2021/05/02 00:05:57;;;;;;;42.58;29.05;;;;;;;-146.18;100.00;67994.34;9984221;29;20464;-68
2021/05/02 00:10:54;;;;;;;45.00;31.67;;;;;;;-146.18;100.00;67994.34;9983986;29;20515;-69
2021/05/02 00:15:50;;;;;;;43.13;31.17;;;;;;;-146.18;100.00;67994.34;9978372;29;20052;-70
2021/05/02 00:20:46;;;;;;;44.58;30.08;;;;;;;-146.18;100.00;67994.34;9988356;29;20044;-70
2021/05/02 00:25:42;;;;;;;45.97;31.30;;;;;;;-146.18;100.00;67994.34;9978781;29;20072;-70
2021/05/02 00:30:38;;;;;;;49.38;32.50;;;;;;;-146.18;100.00;67994.34;9986909;29;20554;-69
2021/05/02 00:35:35;;;;;;;46.63;31.05;;;;;;;-146.18;100.00;67994.34;9989995;29;20097;-68
2021/05/02 00:40:39;;;;;;;43.67;31.05;;;;;;;-146.18;100.00;67994.34;9988171;29;20063;-69
2021/05/02 00:45:38;;;;;;;;;;;;;;;-146.18;100.00;67994.34;9981792;29;20048;-69
2021/05/02 00:50:47;;;;;;;46.42;31.67;;;;;;;-146.18;100.00;67994.34;9984541;29;19923;-70
2021/05/02 00:55:54;;;;;;;59.05;38.80;;;;;;;-146.18;100.00;67994.34;9985977;29;20044;-68
2021/05/02 01:00:54;;;;;;;60.15;40.97;;;;;;;-146.18;100.00;67994.34;9978337;29;20056;-68
2021/05/02 01:05:52;;;;;;;51.78;35.38;;;;;;;-146.18;100.00;67994.34;9986257;29;20111;-69
2021/05/02 01:10:55;;;;;;;52.95;34.03;;;;;;;-146.18;100.00;67994.34;9990826;29;20407;-70
2021/05/02 01:15:53;;;;;;;53.03;36.55;;;;;;;-146.18;100.00;67994.34;9982064;29;20060;-70
2021/05/02 01:20:49;;;;;;;49.42;33.00;;;;;;;-146.18;100.00;67994.34;9987533;29;20040;-69
2021/05/02 01:25:46;;;;;;;51.90;34.42;;;;;;;-146.18;100.00;67994.34;9983593;29;20052;-70
2021/05/02 01:30:42;;;;;;;55.35;37.22;;;;;;;-146.18;100.00;67994.34;9973274;29;20071;-69
2021/05/02 01:35:38;;;;;;;48.05;31.45;;;;;;;-146.18;100.00;67994.34;9990475;29;20064;-69
2021/05/02 01:40:34;;;;;;;56.90;36.45;;;;;;;-146.18;100.00;67994.34;9984360;29;20459;-70
2021/05/02 01:45:30;;;;;;;53.58;38.20;;;;;;;-146.18;100.00;67994.34;9979348;29;20112;-66
2021/05/02 01:50:27;;;;;;;54.28;37.55;;;;;;;-146.18;100.00;67994.34;9993690;29;20043;-68
2021/05/02 01:55:23;;;;;;;47.25;33.00;;;;;;;-146.18;100.00;67994.34;9994417;29;20047;-71
2021/05/02 02:00:23;;;;;;;46.13;32.15;;;;;;;-146.18;100.00;67994.34;9980548;29;20041;-70
2021/05/02 02:05:23;;;;;;;48.05;33.85;;;;;;;-146.18;100.00;67994.34;9988323;29;20503;-71
2021/05/02 02:10:21;;;;;;;46.72;32.25;;;;;;;-146.18;100.00;67994.34;9969807;29;20044;-70
2021/05/02 02:15:18;;;;;;;50.80;34.65;;;;;;;-146.18;100.00;67994.34;9992993;29;20048;-68
2021/05/02 02:20:14;;;;;;;48.67;32.03;;;;;;;-146.18;100.00;67994.34;9986404;29;20048;-69
2021/05/02 02:25:11;;;;;;;55.22;38.53;;;;;;;-146.18;100.00;67994.34;9982570;29;20084;-68
2021/05/02 02:30:11;;;;;;;57.60;37.92;;;;;;;-146.18;100.00;67994.34;9988498;29;20127;-71
2021/05/02 02:35:08;;;;;;;49.28;33.95;;;;;;;-146.18;100.00;67994.34;9980545;29;20638;-71
2021/05/02 02:40:06;;;;;;;62.35;40.72;;;;;;;-146.18;100.00;67994.34;9982797;29;20076;-70
2021/05/02 02:45:06;;;;;;;55.97;36.80;;;;;;;-146.18;100.00;67994.34;9991150;29;20521;-71
2021/05/02 02:50:08;;;;;;;58.53;40.72;;;;;;;-146.18;100.00;67994.34;9987698;29;20443;-70
2021/05/02 02:55:07;;;;;;;57.53;38.85;;;;;;;-146.18;100.00;67994.34;9983137;29;20048;-71
2021/05/02 03:00:05;;;;;;;60.97;40.08;;;;;;;-146.18;100.00;67994.34;9988919;29;20044;-67
2021/05/02 03:05:03;;;;;;;64.13;41.10;;;;;;;-146.18;100.00;67994.34;9982089;29;20683;-70
2021/05/02 03:10:00;;;;;;;55.90;38.20;;;;;;;-146.18;100.00;67994.34;9988188;29;20107;-70
2021/05/02 03:14:56;;;;;;;53.72;38.50;;;;;;;-146.18;100.00;67994.34;9983545;29;20056;-70
2021/05/02 03:20:02;;;;;;;60.40;40.05;;;;;;;-146.18;100.00;67994.34;9982729;29;20094;-70
2021/05/02 03:25:00;;;;;;;57.17;38.83;;;;;;;-146.18;100.00;67994.34;9966576;29;20108;-69
2021/05/02 03:29:58;;;;;;;58.80;39.35;;;;;;;-146.18;100.00;67994.34;9983753;29;20522;-71
2021/05/02 03:34:58;;;;;;;56.50;39.33;;;;;;;-146.18;100.00;67994.34;9983045;29;20467;-69
2021/05/02 03:39:54;;;;;;;58.78;39.47;;;;;;;-146.18;100.00;67994.34;9985368;29;20550;-68
2021/05/02 03:44:50;;;;;;;63.05;37.92;;;;;;;-146.18;100.00;67994.34;9980818;29;20753;-70
2021/05/02 03:49:46;;;;;;;62.40;41.58;;;;;;;-146.18;100.00;67994.34;9979956;29;20052;-70
2021/05/02 03:54:43;;;;;;;64.80;43.08;;;;;;;-146.18;100.00;67994.34;9984338;29;20075;-69
2021/05/02 03:59:39;;;;;;;54.78;36.58;;;;;;;-146.18;100.00;67994.34;9978867;29;20131;-72
2021/05/02 04:04:36;;;;;;;56.53;39.22;;;;;;;-146.18;100.00;67994.34;9991954;29;20080;-70
2021/05/02 04:09:35;;;;;;;63.05;39.58;;;;;;;-146.18;100.00;67994.34;9992168;29;20044;-71
2021/05/02 04:14:32;;;;;;;64.65;41.83;;;;;;;-146.18;100.00;67994.34;9980749;29;20044;-69
2021/05/02 04:19:29;;;;;;;65.25;43.55;;;;;;;-146.18;100.00;67994.34;9988485;29;20040;-70
2021/05/02 04:24:26;;;;;;;88.25;48.13;;;;;;;-146.18;100.00;67994.34;9973563;29;20060;-69
2021/05/02 04:29:27;;;;;;;97.97;49.55;;;;;;;-146.18;100.00;67994.34;9992660;29;20048;-70
2021/05/02 04:34:23;;;;;;;77.90;43.83;;;;;;;-146.18;100.00;67994.34;9990302;29;20048;-70
2021/05/02 04:39:19;;;;;;;81.00;47.30;;;;;;;-146.18;100.00;67994.34;9987747;29;20048;-68
2021/05/02 04:44:16;;;;;;;81.32;46.78;;;;;;;-146.18;100.00;67994.34;9991394;29;20570;-68
2021/05/02 04:49:12;;;;;;;80.15;47.42;;;;;;;-146.18;100.00;67994.34;9983654;29;20044;-69
2021/05/02 04:54:09;;;;;;;73.20;43.45;;;;;;;-146.18;100.00;67994.34;9990170;29;20076;-70
2021/05/02 04:59:07;;;;;;;83.75;47.25;;;;;;;-146.18;100.00;67994.34;9991300;29;20567;-69
2021/05/02 05:04:04;;;;;;;78.43;45.78;;;;;;;-146.18;100.00;67994.34;9991562;29;20040;-69
2021/05/02 05:09:00;;;;;;;80.07;49.13;;;;;;;-146.18;100.00;67994.34;9990917;29;20099;-69
2021/05/02 05:13:56;;;;;;;76.60;46.00;;;;;;;-146.18;100.00;67994.34;9987402;29;20048;-69
2021/05/02 05:18:52;;;;;;;74.57;46.85;;;;;;;-146.18;100.00;67994.34;9989662;29;20092;-69
2021/05/02 05:23:49;;;;;;;77.30;46.85;;;;;;;-146.18;100.00;67994.34;9989483;29;20510;-68
2021/05/02 05:28:45;;;;;;;69.68;42.50;;;;;;;-146.18;100.00;67994.34;9992300;29;20068;-69
2021/05/02 05:33:41;;;;;;;66.38;43.15;;;;;;;-146.18;100.00;67994.34;9981909;29;20054;-68
2021/05/02 05:38:37;;;;;;;65.88;40.47;;;;;;;-146.18;100.00;67994.34;9975162;29;20108;-68
2021/05/02 05:43:33;;;;;;;60.17;38.95;;;;;;;-146.18;100.00;67994.34;9980206;29;20515;-66
2021/05/02 05:48:31;;;;;;;60.88;40.85;;;;;;;-146.18;100.00;67994.34;9982659;29;20048;-68
2021/05/02 05:53:27;;;;;;;61.10;39.75;;;;;;;-146.18;100.00;67994.34;9985250;29;20107;-71
2021/05/02 05:58:24;;;;;;;58.00;39.85;;;;;;;-146.18;100.00;67994.34;9992419;29;20052;-70
2021/05/02 06:03:20;;;;;;;50.38;34.88;;;;;;;-146.18;100.00;67994.34;9991537;29;20048;-70
2021/05/02 06:08:16;;;;;;;53.47;36.08;;;;;;;-146.18;100.00;67994.34;9985366;29;20506;-68
2021/05/02 06:13:16;;;;;;;48.63;33.80;;;;;;;-146.18;100.00;67994.34;9984512;29;20056;-70
2021/05/02 06:18:12;;;;;;;46.50;33.80;;;;;;;-146.18;100.00;67994.34;9976300;29;20111;-70
2021/05/02 06:23:08;;;;;;;45.40;31.85;;;;;;;-146.18;100.00;67994.34;9985300;29;20410;-70
2021/05/02 06:28:04;;;;;;;44.78;31.73;;;;;;;-146.18;100.00;67994.34;9979180;29;20052;-69
2021/05/02 06:33:01;;;;;;;41.15;29.20;;;;;;;-146.18;100.00;67994.34;9970194;29;20048;-71
2021/05/02 06:37:58;;;;;;;39.53;27.35;;;;;;;-146.18;100.00;67994.34;9968849;29;20044;-71
2021/05/02 06:42:54;;;;;;;37.45;26.10;;;;;;;-146.18;100.00;67994.34;9971433;29;20116;-71
2021/05/02 06:47:50;;;;;;;34.58;27.23;;;;;;;-146.18;100.00;67994.34;9977025;29;20103;-71
2021/05/02 06:52:47;;;;;;;32.63;24.33;;;;;;;-146.18;100.00;67994.34;9976194;29;20056;-69
2021/05/02 06:57:43;;;;;;;31.40;21.67;;;;;;;-146.18;100.00;67994.34;9982353;29;20450;-70
2021/05/02 07:02:38;;;;;;;28.25;20.77;;;;;;;-146.18;100.00;67994.34;9980786;29;20047;-70
2021/05/02 07:07:34;;;;;;;27.38;20.23;;;;;;;-146.18;100.00;67994.34;9967868;29;20040;-70
2021/05/02 07:12:31;;;;;;;26.20;18.95;;;;;;;-146.18;100.00;67994.34;9977130;29;20078;-70
2021/05/02 07:17:27;;;;;;;26.25;20.27;;;;;;;-146.18;100.00;67994.34;9980969;29;20551;-70
2021/05/02 07:22:25;;;;;;;24.88;19.30;;;;;;;-146.18;100.00;67994.34;9971159;29;20075;-70
2021/05/02 07:27:21;;;;;;;25.27;18.38;;;;;;;-146.18;100.00;67994.34;9975978;29;20512;-68
2021/05/02 07:32:17;;;;;;;23.60;16.40;;;;;;;-146.18;100.00;67994.34;9968124;29;20658;-68
2021/05/02 07:37:13;;;;;;;21.25;15.13;;;;;;;-146.18;100.00;67994.34;9974629;29;20083;-67
2021/05/02 07:42:09;;;;;;;19.73;13.30;;;;;;;-146.18;100.00;67994.34;9977340;29;20048;-69
2021/05/02 07:47:05;;;;;;;19.63;15.10;;;;;;;-146.18;100.00;67994.34;9965160;29;20048;-69
2021/05/02 07:52:03;;;;;;;18.33;13.55;;;;;;;-146.18;100.00;67994.34;9971174;29;20068;-69
2021/05/02 07:56:59;;;;;;;17.10;13.27;;;;;;;-146.18;100.00;67994.34;9972243;29;20045;-69
2021/05/02 08:01:55;;;;;;;17.00;13.68;;;;;;;-146.18;100.00;67994.34;9969136;29;20060;-68
2021/05/02 08:06:51;;;;;;;20.73;13.77;;;;;;;-146.18;100.00;67994.34;9978985;29;20052;-68
2021/05/02 08:11:48;;;;;;;16.55;12.55;;;;;;;-146.18;100.00;67994.34;9986283;29;20053;-71
2021/05/02 08:16:44;;;;;;;24.38;14.73;;;;;;;-146.18;100.00;67994.34;9987127;29;20108;-69
2021/05/02 08:21:40;;;;;;;16.55;12.40;;;;;;;-146.18;100.00;67994.34;9986887;29;20098;-67
2021/05/02 08:26:36;;;;;;;15.35;11.25;;;;;;;-146.18;100.00;67994.34;9975196;29;20040;-70
2021/05/02 08:31:32;;;;;;;13.88;11.20;;;;;;;-146.18;100.00;67994.34;9973863;29;20662;-67
2021/05/02 08:36:28;;;;;;;14.25;11.73;;;;;;;-146.18;100.00;67994.34;9976844;29;20048;-70
2021/05/02 08:41:25;;;;;;;16.52;12.18;;;;;;;-146.18;100.00;67994.34;9972262;29;20063;-67
2021/05/02 08:46:29;;;;;;;;;;;;;;;-146.18;100.00;67994.34;9982702;29;20139;-70
2021/05/02 08:51:25;;;;;;;12.43;8.63;;;;;;;-146.18;100.00;67994.34;9988660;29;19927;-68
2021/05/02 08:56:21;;;;;;;12.07;9.48;;;;;;;-146.18;100.00;67994.34;9968557;29;20144;-70
2021/05/02 09:01:27;;;;;;;15.88;10.45;;;;;;;-146.18;100.00;67994.34;9977293;29;20044;-69
2021/05/02 09:06:28;;;;;;;12.65;9.40;;;;;;;-146.18;100.00;67994.34;9983353;29;20701;-68
2021/05/02 09:11:35;;;;;;;13.40;7.53;;;;;;;-146.18;100.00;67994.34;9982400;29;20095;-69
2021/05/02 09:16:52;;;;;;;11.10;8.40;;;;;;;-146.18;100.00;67994.34;9982762;29;20053;-67
2021/05/02 09:21:49;;;;;;;11.65;8.55;;;;;;;-146.18;100.00;67994.34;9985751;29;20506;-68
2021/05/02 09:26:44;;;;;;;12.15;8.98;;;;;;;-146.18;100.00;67994.34;9973683;29;20055;-68
2021/05/02 09:31:41;;;;;;;13.82;9.18;;;;;;;-146.18;100.00;67994.34;9974170;29;20048;-69
2021/05/02 09:37:02;;;;;;;12.35;8.90;;;;;;;-146.18;100.00;67994.34;9979687;29;20044;-69
2021/05/02 09:42:38;;;;;;;11.27;8.60;;;;;;;-146.18;100.00;67994.34;9983610;29;20052;-68
2021/05/02 09:47:39;;;;;;;9.02;6.78;;;;;;;-146.18;100.00;67994.34;9972788;29;20048;-67
2021/05/02 09:52:41;;;;;;;8.77;6.95;;;;;;;-146.18;100.00;67994.34;9989304;29;20069;-68
2021/05/02 09:57:38;;;;;;;10.43;7.07;;;;;;;-146.18;100.00;67994.34;9986026;29;22181;-69
2021/05/02 10:02:34;;;;;;;8.85;6.70;;;;;;;-146.18;100.00;67994.34;9977868;29;20043;-68
2021/05/02 10:07:30;;;;;;;8.10;5.60;;;;;;;-146.18;100.00;67994.34;9980273;29;20575;-68
2021/05/02 10:12:26;;;;;;;8.00;4.95;;;;;;;-146.18;100.00;67994.34;9992751;29;20056;-69
2021/05/02 10:17:24;;;;;;;8.52;5.85;;;;;;;-146.18;100.00;67994.34;9982325;29;20139;-70
2021/05/02 10:22:21;;;;;;;8.20;6.18;;;;;;;-146.18;100.00;67994.34;9984592;29;20059;-67
2021/05/02 10:27:17;;;;;;;10.88;6.93;;;;;;;-146.18;100.00;67994.34;9984595;29;20123;-69
2021/05/02 10:32:14;;;;;;;6.57;4.28;;;;;;;-146.18;100.00;67994.34;9980350;29;20048;-67
2021/05/02 10:37:29;;;;;;;7.15;3.72;;;;;;;-146.18;100.00;67994.34;9979508;29;20549;-69
2021/05/02 10:42:59;;;;;;;5.78;3.88;;;;;;;-146.18;100.00;67994.34;9975278;29;20048;-69
2021/05/02 10:47:55;;;;;;;5.45;3.88;;;;;;;-146.18;100.00;67994.34;9972801;29;20135;-67
2021/05/02 10:53:13;;;;;;;4.45;3.25;;;;;;;-146.18;100.00;67994.34;9978992;29;20048;-69
2021/05/02 10:58:21;;;;;;;5.72;3.92;;;;;;;-146.18;100.00;67994.34;9981140;29;20107;-69
2021/05/02 11:03:35;;;;;;;5.55;4.05;;;;;;;-146.18;100.00;67994.34;9971916;29;20127;-69
2021/05/02 11:08:51;;;;;;;4.88;2.88;;;;;;;-146.18;100.00;67994.34;9968662;29;20048;-68
2021/05/02 11:13:47;;;;;;;5.50;3.17;;;;;;;-146.18;100.00;67994.34;9978971;29;20143;-68
2021/05/02 11:18:51;;;;;;;7.65;3.30;;;;;;;-146.18;100.00;67994.34;9974419;29;20760;-69
2021/05/02 11:23:54;;;;;;;5.53;3.83;;;;;;;-146.18;100.00;67994.34;9976382;29;20048;-70
2021/05/02 11:29:13;;;;;;;7.83;4.17;;;;;;;-146.18;100.00;67994.34;9969470;29;20045;-68
2021/05/02 11:34:09;;;;;;;10.05;4.30;;;;;;;-146.18;100.00;67994.34;9975057;29;20264;-69
2021/05/02 11:39:07;;;;;;;5.43;3.17;;;;;;;-146.18;100.00;67994.34;9976678;29;20068;-69
2021/05/02 11:44:10;;;;;;;5.63;3.83;;;;;;;-146.18;100.00;67994.34;9986705;29;20502;-69
2021/05/02 11:49:06;;;;;;;5.78;4.13;;;;;;;-146.18;100.00;67994.34;9977582;29;20044;-68
2021/05/02 11:54:03;;;;;;;4.82;3.03;;;;;;;-146.18;100.00;67994.34;9973002;29;20636;-67
2021/05/02 11:59:03;;;;;;;6.88;3.83;;;;;;;-146.18;100.00;67994.34;9968796;29;20099;-69
2021/05/02 12:04:06;;;;;;;6.70;5.13;;;;;;;-146.18;100.00;67994.34;9964700;29;20071;-68
2021/05/02 12:09:17;;;;;;;7.77;5.10;;;;;;;-146.18;100.00;67994.34;9974643;29;20131;-67
2021/05/02 12:14:22;;;;;;;8.55;5.38;;;;;;;-146.18;100.00;67994.34;9976075;29;20103;-69
2021/05/02 12:19:18;;;;;;;8.05;4.22;;;;;;;-146.18;100.00;67994.34;9976678;29;20075;-66
2021/05/02 12:24:26;;;;;;;7.20;4.57;;;;;;;-146.18;100.00;67994.34;9989972;29;20045;-67
2021/05/02 12:29:25;;;;;;;6.32;3.80;;;;;;;-146.18;100.00;67994.34;9988660;29;20111;-69
2021/05/02 12:34:25;;;;;;;5.45;3.00;;;;;;;-146.18;100.00;67994.34;9986981;29;20108;-67
2021/05/02 12:39:29;;;;;;;4.60;2.85;;;;;;;-146.18;100.00;67994.34;9986517;29;20094;-67
2021/05/02 12:44:28;;;;;;;6.43;2.85;;;;;;;-146.18;100.00;67994.34;9987876;29;21108;-67
2021/05/02 12:49:29;;;;;;;4.05;2.42;;;;;;;-146.18;100.00;67994.34;9991377;29;20088;-68
2021/05/02 12:54:31;;;;;;;5.22;2.17;;;;;;;-146.18;100.00;67994.34;9986288;29;20052;-67
2021/05/02 12:59:40;;;;;;;5.07;2.65;;;;;;;-146.18;100.00;67994.34;9980958;29;20080;-68
2021/05/02 13:04:56;;;;;;;5.00;3.40;;;;;;;-146.18;100.00;67994.34;9987033;29;20056;-69
2021/05/02 13:09:52;;;;;;;4.97;3.08;;;;;;;-146.18;100.00;67994.34;9978389;29;20111;-69
2021/05/02 13:15:11;;;;;;;4.43;2.65;;;;;;;-146.18;100.00;67994.34;9985500;29;20055;-65
2021/05/02 13:20:07;;;;;;;4.45;2.40;;;;;;;-146.18;100.00;67994.34;9978934;29;20052;-66
2021/05/02 13:25:08;;;;;;;6.50;2.75;;;;;;;-146.18;100.00;67994.34;9993919;29;20075;-70
2021/05/02 13:30:09;;;;;;;3.70;1.60;;;;;;;-146.18;100.00;67994.34;9988298;29;20083;-66
2021/05/02 13:35:05;;;;;;;3.78;1.80;;;;;;;-146.18;100.00;67994.34;9973799;29;20057;-69
2021/05/02 13:40:01;;;;;;;4.82;2.83;;;;;;;-146.18;100.00;67994.34;9983185;29;20542;-69
2021/05/02 13:44:59;;;;;;;4.85;2.15;;;;;;;-146.18;100.00;67994.34;9987236;29;20111;-69
2021/05/02 13:49:55;;;;;;;2.88;1.30;;;;;;;-146.18;100.00;67994.34;9986476;29;20062;-69
2021/05/02 13:54:53;;;;;;;4.05;1.65;;;;;;;-146.18;100.00;67994.34;9987495;29;20418;-67
2021/05/02 13:59:49;;;;;;;3.38;1.50;;;;;;;-146.18;100.00;67994.34;9994435;29;20103;-68
2021/05/02 14:04:47;;;;;;;4.63;1.90;;;;;;;-146.18;100.00;67994.34;10010130;29;20075;-65
2021/05/02 14:09:44;;;;;;;4.75;1.83;;;;;;;-146.18;100.00;67994.34;9974393;29;20072;-67
2021/05/02 14:14:40;;;;;;;6.43;2.13;;;;;;;-146.18;100.00;67994.34;9988395;29;20044;-68
2021/05/02 14:19:36;;;;;;;4.70;2.97;;;;;;;-146.18;100.00;67994.34;9978226;29;20041;-70
2021/05/02 14:24:33;;;;;;;6.93;2.83;;;;;;;-146.18;100.00;67994.34;9993139;29;20060;-68
2021/05/02 14:29:29;;;;;;;6.32;3.15;;;;;;;-146.18;100.00;67994.34;9961711;29;20091;-65
2021/05/02 14:34:42;;;;;;;6.17;2.90;;;;;;;-146.18;100.00;67994.34;9980145;29;20091;-66
2021/05/02 14:39:39;;;;;;;5.07;2.85;;;;;;;-146.18;100.00;67994.34;9973702;29;20496;-67
2021/05/02 14:44:35;;;;;;;5.75;3.15;;;;;;;-146.18;100.00;67994.34;9973900;29;20067;-66
2021/05/02 14:49:34;;;;;;;5.30;3.15;;;;;;;-146.18;100.00;67994.34;9969319;29;20488;-65
2021/05/02 14:54:36;;;;;;;7.35;4.00;;;;;;;-146.18;100.00;67994.34;9966480;29;20049;-63
2021/05/02 14:59:33;;;;;;;4.68;3.08;;;;;;;-146.18;100.00;67994.34;9979187;29;20446;-63
2021/05/02 15:04:29;;;;;;;5.13;3.00;;;;;;;-146.18;100.00;67994.34;9985905;29;20047;-65
2021/05/02 15:09:25;;;;;;;5.53;3.67;;;;;;;-146.18;100.00;67994.34;9985253;29;20044;-69
2021/05/02 15:14:21;;;;;;;8.68;4.80;;;;;;;-146.18;100.00;67994.34;9988267;29;20048;-68
2021/05/02 15:19:17;;;;;;;7.70;4.63;;;;;;;-146.18;100.00;67994.34;9988347;29;20104;-69
2021/05/02 15:24:13;;;;;;;9.30;5.55;;;;;;;-146.18;100.00;67994.34;9967402;29;20084;-68
2021/05/02 15:29:12;;;;;;;8.43;5.30;;;;;;;-146.18;100.00;67994.34;9976610;29;20075;-70
2021/05/02 15:34:11;;;;;;;8.60;5.53;;;;;;;-146.18;100.00;67994.34;9987337;29;20103;-69
2021/05/02 15:39:09;;;;;;;8.77;5.63;;;;;;;-146.18;100.00;67994.34;9986223;29;20048;-67
2021/05/02 15:44:06;;;;;;;5.75;4.03;;;;;;;-146.18;100.00;67994.34;9986807;29;20108;-68
2021/05/02 15:49:04;;;;;;;6.53;3.47;;;;;;;-146.18;100.00;67994.34;9982705;29;20048;-67
2021/05/02 15:54:00;;;;;;;8.80;4.43;;;;;;;-146.18;100.00;67994.34;9977038;29;20057;-67
2021/05/02 15:58:57;;;;;;;7.57;3.00;;;;;;;-146.18;100.00;67994.34;9979825;29;20111;-69
2021/05/02 16:03:53;;;;;;;8.65;3.55;;;;;;;-146.18;100.00;67994.34;9980828;29;20626;-69
2021/05/02 16:08:50;;;;;;;9.80;3.13;;;;;;;-146.18;100.00;67994.34;9980611;29;20068;-68
2021/05/02 16:13:47;;;;;;;14.63;5.50;;;;;;;-146.18;100.00;67994.34;9981457;29;20056;-69
2021/05/02 16:18:43;;;;;;;8.55;3.38;;;;;;;-146.18;100.00;67994.34;9980382;29;20052;-66
2021/05/02 16:23:39;;;;;;;7.28;3.70;;;;;;;-146.18;100.00;67994.34;9980082;29;20459;-66
2021/05/02 16:28:35;;;;;;;6.43;2.17;;;;;;;-146.18;100.00;67994.34;9967294;29;20052;-67
2021/05/02 16:33:31;;;;;;;4.88;2.20;;;;;;;-146.18;100.00;67994.34;9980933;29;20508;-67
2021/05/02 16:38:28;;;;;;;9.05;3.38;;;;;;;-146.18;100.00;67994.34;9977456;29;20107;-64
2021/05/02 16:43:24;;;;;;;6.25;2.33;;;;;;;-146.18;100.00;67994.34;9979914;29;20060;-67
2021/05/02 16:48:20;;;;;;;4.40;1.20;;;;;;;-146.18;100.00;67994.34;9981390;29;20151;-68
2021/05/02 16:53:16;;;;;;;2.83;1.00;;;;;;;-146.18;100.00;67994.34;9974070;29;20104;-68
2021/05/02 16:58:12;;;;;;;4.97;0.88;;;;;;;-146.18;100.00;67994.34;9976881;29;20392;-68
2021/05/02 17:03:10;;;;;;;4.03;0.90;;;;;;;-146.18;100.00;67994.34;9963973;29;20070;-64
2021/05/02 17:08:06;;;;;;;2.92;0.73;;;;;;;-146.18;100.00;67994.34;9976098;29;20048;-68
2021/05/02 17:13:02;;;;;;;5.95;1.35;;;;;;;-146.18;100.00;67994.34;9973830;29;20060;-67
2021/05/02 17:17:58;;;;;;;4.50;0.90;;;;;;;-146.18;100.00;67994.34;9985090;29;20048;-66
2021/05/02 17:22:56;;;;;;;5.38;0.70;;;;;;;-146.18;100.00;67994.34;9976661;29;20056;-65
2021/05/02 17:27:52;;;;;;;4.18;0.88;;;;;;;-146.18;100.00;67994.34;9984962;29;20503;-67
2021/05/02 17:32:48;;;;;;;5.50;1.38;;;;;;;-146.18;100.00;67994.34;9981273;29;20468;-66
2021/05/02 17:37:46;;;;;;;7.70;1.75;;;;;;;-146.18;100.00;67994.34;9974668;29;20040;-68
2021/05/02 17:42:45;;;;;;;6.60;1.27;;;;;;;-146.18;100.00;67994.34;9978026;29;20052;-65
2021/05/02 17:47:41;;;;;;;3.83;1.33;;;;;;;-146.18;100.00;67994.34;9972652;29;20047;-69
2021/05/02 17:52:39;;;;;;;4.65;1.27;;;;;;;-146.18;100.00;67994.34;9980951;29;20052;-67
2021/05/02 17:57:36;;;;;;;4.43;1.33;;;;;;;-146.18;100.00;67994.34;9982704;29;20511;-67
2021/05/02 18:02:32;;;;;;;7.13;1.60;;;;;;;-146.18;100.00;67994.34;9972995;29;20147;-67
2021/05/02 18:07:28;;;;;;;4.18;1.30;;;;;;;-146.18;100.00;67994.34;9974416;29;20456;-68
2021/05/02 18:12:24;;;;;;;6.15;1.13;;;;;;;-146.18;100.00;67994.34;9978453;29;20060;-67
2021/05/02 18:17:20;;;;;;;5.45;1.75;;;;;;;-146.18;100.00;67994.34;9976636;29;20072;-68
2021/05/02 18:22:16;;;;;;;5.43;1.02;;;;;;;-146.18;100.00;67994.34;9971001;29;20051;-69
2021/05/02 18:27:12;;;;;;;7.80;1.63;;;;;;;-146.18;100.00;67994.34;9968345;29;20147;-66
2021/05/02 18:32:10;;;;;;;6.22;1.45;;;;;;;-146.18;100.00;67994.34;9966813;29;20048;-68
2021/05/02 18:37:08;;;;;;;5.43;1.60;;;;;;;-146.18;100.00;67994.34;9977965;29;20112;-67
2021/05/02 18:42:04;;;;;;;7.35;1.30;;;;;;;-146.18;100.00;67994.34;9976258;29;20071;-68
2021/05/02 18:47:00;;;;;;;5.95;1.70;;;;;;;-146.18;100.00;67994.34;9985389;29;20494;-70
2021/05/02 18:51:56;;;;;;;4.80;1.67;;;;;;;-146.18;100.00;67994.34;9972447;29;20052;-68
2021/05/02 18:56:53;;;;;;;6.45;1.80;;;;;;;-146.18;100.00;67994.34;9975207;29;20055;-68
2021/05/02 19:01:50;;;;;;;7.88;1.92;;;;;;;-146.18;100.00;67994.34;9973555;29;20044;-68
2021/05/02 19:06:46;;;;;;;6.45;1.92;;;;;;;-146.18;100.00;67994.34;9962567;29;20052;-68
2021/05/02 19:11:42;;;;;;;8.38;1.85;;;;;;;-146.18;100.00;67994.34;9984828;29;20079;-69
2021/05/02 19:16:38;;;;;;;6.57;2.13;;;;;;;-146.18;100.00;67994.34;9977680;29;20143;-68
2021/05/02 19:21:36;;;;;;;8.93;2.55;;;;;;;-146.18;100.00;67994.34;9978034;29;20526;-69
2021/05/02 19:26:33;;;;;;;7.70;3.22;;;;;;;-146.18;100.00;67994.34;9969267;29;20052;-67
2021/05/02 19:31:29;;;;;;;7.40;2.08;;;;;;;-146.18;100.00;67994.34;9975056;29;20044;-67
2021/05/02 19:36:27;;;;;;;7.80;1.75;;;;;;;-146.18;100.00;67994.34;9975827;29;20059;-68
2021/05/02 19:41:23;;;;;;;3.30;1.50;;;;;;;-146.18;100.00;67994.34;9973897;29;20104;-69
2021/05/02 19:46:20;;;;;;;8.32;1.65;;;;;;;-146.18;100.00;67994.34;9978027;29;20048;-68
2021/05/02 19:51:16;;;;;;;5.10;1.73;;;;;;;-146.18;100.00;67994.34;9978466;29;20044;-67
2021/05/02 19:56:12;;;;;;;8.35;1.65;;;;;;;-146.18;100.00;67994.34;9976169;29;20137;-67
2021/05/02 20:01:09;;;;;;;7.05;1.65;;;;;;;-146.18;100.00;67994.34;9978803;29;20511;-69
2021/05/02 20:06:10;;;;;;;8.77;2.13;;;;;;;-146.18;100.00;67994.34;9985503;29;20054;-71
2021/05/02 20:11:06;;;;;;;13.85;3.58;;;;;;;-146.18;100.00;67994.34;9963532;29;20067;-69
2021/05/02 20:16:02;;;;;;;7.97;3.05;;;;;;;-146.18;100.00;67994.34;9986996;29;20099;-70
2021/05/02 20:20:59;;;;;;;7.97;2.35;;;;;;;-146.18;100.00;67994.34;9983982;29;20455;-71
2021/05/02 20:25:55;;;;;;;8.95;2.63;;;;;;;-146.18;100.00;67994.34;9982748;29;20575;-66
2021/05/02 20:30:52;;;;;;;10.98;2.85;;;;;;;-146.18;100.00;67994.34;9976308;29;20558;-71
2021/05/02 20:35:49;;;;;;;10.27;2.35;;;;;;;-146.18;100.00;67994.34;9973309;29;20052;-69
2021/05/02 20:40:45;;;;;;;11.10;2.85;;;;;;;-146.18;100.00;67994.34;9983991;29;20636;-68
2021/05/02 20:45:41;;;;;;;9.27;2.22;;;;;;;-146.18;100.00;67994.34;9994338;29;20115;-69
2021/05/02 20:50:38;;;;;;;11.07;2.67;;;;;;;-146.18;100.00;67994.34;9995720;29;20096;-69
2021/05/02 20:55:34;;;;;;;9.65;2.90;;;;;;;-146.18;100.00;67994.34;9997314;29;20128;-65
2021/05/02 21:00:30;;;;;;;14.55;3.45;;;;;;;-146.18;100.00;67994.34;9993440;29;20502;-69
2021/05/02 21:05:26;;;;;;;10.88;2.63;;;;;;;-146.18;100.00;67994.34;9989899;29;20060;-67
2021/05/02 21:10:22;;;;;;;13.80;2.60;;;;;;;-146.18;100.00;67994.34;9983271;29;20151;-68
2021/05/02 21:15:18;;;;;;;8.20;2.55;;;;;;;-146.18;100.00;67994.34;9996915;29;20558;-69
2021/05/02 21:20:15;;;;;;;10.02;2.08;;;;;;;-146.18;100.00;67994.34;9991533;29;20052;-69
2021/05/02 21:25:11;;;;;;;10.70;2.35;;;;;;;-146.18;100.00;67994.34;9996200;29;20095;-68
2021/05/02 21:30:08;;;;;;;9.60;2.35;;;;;;;-146.18;100.00;67994.34;9985286;29;20132;-67
2021/05/02 21:35:06;;;;;;;7.97;1.88;;;;;;;-146.18;100.00;67994.34;9993476;29;20064;-66
2021/05/02 21:40:04;;;;;;;8.25;2.15;;;;;;;-146.18;100.00;67994.34;9989498;29;20464;-67
2021/05/02 21:45:00;;;;;;;7.20;1.83;;;;;;;-146.18;100.00;67994.34;9978527;29;20494;-69
2021/05/02 21:49:59;;;;;;;6.45;2.45;;;;;;;-146.18;100.00;67994.34;9989108;29;20048;-69
2021/05/02 21:54:55;;;;;;;8.10;1.80;;;;;;;-146.18;100.00;67994.34;9974689;29;20522;-71
2021/05/02 21:59:54;;;;;;;5.32;1.90;;;;;;;-146.18;100.00;67994.34;9982361;29;20036;-71
2021/05/02 22:04:55;;;;;;;7.03;1.52;;;;;;;-146.18;100.00;67994.34;9988880;29;20596;-69
2021/05/02 22:09:51;;;;;;;9.77;1.77;;;;;;;-146.18;100.00;67994.34;9992129;29;20095;-69
2021/05/02 22:14:47;;;;;;;5.18;1.35;;;;;;;-146.18;100.00;67994.34;9985221;29;20040;-70
2021/05/02 22:19:43;;;;;;;11.73;1.63;;;;;;;-146.18;100.00;67994.34;9985446;29;20095;-68